Time;durP1;ratioP1;P1;durP2;ratioP2;P2;SDS_P1;SDS_P2;PMS_P1;PMS_P2;Temp;Humidity;BMP_temperature;BMP_pressure;BME280_temperature;BME280_humidity;BME280_pressure;Samples;Min_cycle;Max_cycle;Signal;HPM_P1;HPM_P2
2021/10/06 00:00:43;;;;;;;0.00;0.00;;;;;;;10.64;54.24;99955.91;4917114;29;20504;-79
2021/10/06 00:03:08;;;;;;;0.00;0.00;;;;;;;10.61;54.60;99961.78;4924397;29;20035;-81
2021/10/06 00:05:33;;;;;;;0.00;0.00;;;;;;;10.57;54.77;99968.72;4922531;29;20475;-77
2021/10/06 00:07:59;;;;;;;0.00;0.00;;;;;;;10.51;54.95;99959.81;4936948;29;20478;-79
2021/10/06 00:10:24;;;;;;;0.00;0.00;;;;;;;10.47;55.29;99965.94;4925426;29;20043;-80
2021/10/06 00:12:50;;;;;;;0.00;0.00;;;;;;;10.46;54.84;99962.47;4929448;29;20031;-82
2021/10/06 00:15:15;;;;;;;0.00;0.00;;;;;;;10.44;55.02;99963.78;4919590;29;20114;-81
2021/10/06 00:17:41;;;;;;;0.00;0.00;;;;;;;10.40;54.95;99969.63;4923671;29;20027;-78
2021/10/06 00:20:09;;;;;;;0.00;0.00;;;;;;;10.38;55.33;99971.72;4933417;29;20205;-89
2021/10/06 00:22:35;;;;;;;0.13;0.13;;;;;;;10.35;55.16;99971.38;4932075;29;20499;-90
2021/10/06 00:25:00;;;;;;;0.00;0.00;;;;;;;10.30;54.79;99974.84;4923756;29;20028;-82
2021/10/06 00:27:26;;;;;;;0.00;0.00;;;;;;;10.28;55.05;99963.56;4917519;29;20031;-78
2021/10/06 00:29:51;;;;;;;0.00;0.00;;;;;;;10.27;55.48;99955.81;4917645;29;20032;-79
2021/10/06 00:32:17;;;;;;;0.00;0.00;;;;;;;10.21;55.51;99955.75;4926602;29;20027;-85
2021/10/06 00:34:43;;;;;;;0.00;0.00;;;;;;;10.18;55.71;99952.75;4923857;29;20043;-79
2021/10/06 00:37:08;;;;;;;0.00;0.00;;;;;;;10.16;56.04;99954.91;4949429;29;20107;-80
2021/10/06 00:39:34;;;;;;;0.00;0.00;;;;;;;10.13;56.23;99956.19;4920493;29;20027;-82
2021/10/06 00:41:59;;;;;;;0.00;0.00;;;;;;;10.07;56.52;99954.50;4917534;29;20032;-81
2021/10/06 00:44:25;;;;;;;0.00;0.00;;;;;;;10.02;56.58;99949.94;4917536;29;20094;-79
2021/10/06 00:46:50;;;;;;;0.00;0.00;;;;;;;10.00;56.57;99938.69;4917482;29;20130;-81
2021/10/06 00:49:17;;;;;;;0.00;0.00;;;;;;;9.96;56.24;99939.41;4917579;29;20039;-83
2021/10/06 00:51:42;;;;;;;0.00;0.00;;;;;;;9.89;56.51;99943.09;4917598;29;20032;-79
2021/10/06 00:54:08;;;;;;;0.00;0.00;;;;;;;9.87;56.30;99947.88;4917231;29;20494;-78
2021/10/06 00:56:34;;;;;;;0.00;0.00;;;;;;;9.85;56.19;99941.16;4934753;29;20514;-78
2021/10/06 00:59:00;;;;;;;0.00;0.00;;;;;;;9.82;56.29;99937.13;4925964;29;20028;-77
2021/10/06 01:01:26;;;;;;;0.00;0.00;;;;;;;9.77;56.54;99939.75;4924541;29;20685;-78
2021/10/06 01:03:51;;;;;;;0.00;0.00;;;;;;;9.75;56.66;99936.50;4933924;29;20036;-80
2021/10/06 01:06:17;;;;;;;0.00;0.00;;;;;;;9.74;56.88;99935.69;4921430;29;20039;-83
2021/10/06 01:08:42;;;;;;;0.00;0.00;;;;;;;9.71;57.10;99933.50;4920606;29;20020;-79
2021/10/06 01:11:09;;;;;;;0.00;0.00;;;;;;;9.70;57.17;99931.09;4949204;29;20549;-79
2021/10/06 01:13:36;;;;;;;0.00;0.00;;;;;;;9.68;57.54;99930.53;4917375;29;20031;-82
2021/10/06 01:16:03;;;;;;;0.00;0.00;;;;;;;9.65;57.32;99931.03;4919583;29;20050;-83
2021/10/06 01:18:28;;;;;;;0.00;0.00;;;;;;;9.62;57.19;99940.34;4917816;29;20036;-78
2021/10/06 01:20:54;;;;;;;0.05;0.05;;;;;;;9.61;56.62;99933.41;4917597;29;20093;-83
2021/10/06 01:23:19;;;;;;;0.00;0.00;;;;;;;9.59;56.77;99939.00;4917067;29;20487;-79
2021/10/06 01:25:45;;;;;;;0.05;0.05;;;;;;;9.58;56.91;99939.22;4917967;29;20034;-80
2021/10/06 01:28:10;;;;;;;0.00;0.00;;;;;;;9.55;57.03;99937.84;4918828;29;20034;-78
2021/10/06 01:30:36;;;;;;;0.00;0.00;;;;;;;9.54;57.01;99932.78;4933333;29;20039;-77
2021/10/06 01:33:01;;;;;;;0.00;0.00;;;;;;;9.54;57.08;99935.44;4923618;29;20054;-79
2021/10/06 01:35:27;;;;;;;0.00;0.00;;;;;;;9.52;57.62;99930.34;4916391;29;20027;-83
2021/10/06 01:37:53;;;;;;;0.00;0.00;;;;;;;9.52;57.63;99938.38;4916092;29;20122;-76
2021/10/06 01:40:22;;;;;;;0.00;0.00;;;;;;;9.50;57.93;99926.31;4916944;29;20036;-78
2021/10/06 01:42:49;;;;;;;0.00;0.00;;;;;;;9.45;58.52;99927.84;4916281;29;20028;-81
2021/10/06 01:45:20;;;;;;;0.00;0.00;;;;;;;9.42;58.82;99924.88;4934996;29;20043;-78
2021/10/06 01:47:45;;;;;;;0.00;0.00;;;;;;;9.45;58.47;99937.72;4921130;29;20031;-77
2021/10/06 01:50:16;;;;;;;0.00;0.00;;;;;;;9.43;58.77;99929.94;4931022;29;20505;-79
2021/10/06 01:52:41;;;;;;;0.00;0.00;;;;;;;9.41;58.91;99921.41;4903850;29;20039;-81
2021/10/06 01:55:07;;;;;;;0.00;0.00;;;;;;;9.39;58.74;99918.16;4916740;29;20563;-77
2021/10/06 01:57:32;;;;;;;0.00;0.00;;;;;;;9.38;58.88;99918.41;4917579;29;20083;-78
2021/10/06 01:59:58;;;;;;;0.00;0.00;;;;;;;9.35;58.50;99913.56;4917363;29;20031;-78
2021/10/06 02:02:23;;;;;;;0.00;0.00;;;;;;;9.33;58.70;99916.47;4925087;29;20035;-77
2021/10/06 02:04:48;;;;;;;0.00;0.00;;;;;;;9.35;58.78;99913.56;4920240;29;20475;-79
2021/10/06 02:07:14;;;;;;;0.00;0.00;;;;;;;9.32;59.25;99916.72;4916442;29;20042;-79
2021/10/06 02:09:39;;;;;;;0.00;0.00;;;;;;;9.30;59.71;99908.94;4916506;29;20062;-78
2021/10/06 02:12:05;;;;;;;0.00;0.00;;;;;;;9.33;60.17;99907.66;4916589;29;20430;-78
2021/10/06 02:14:30;;;;;;;0.00;0.00;;;;;;;9.32;60.06;99898.84;4915728;29;20024;-77
2021/10/06 02:16:56;;;;;;;0.00;0.00;;;;;;;9.34;60.28;99904.75;4916694;29;20040;-80
2021/10/06 02:19:21;;;;;;;0.00;0.00;;;;;;;9.34;60.08;99903.91;4925485;29;20058;-77
2021/10/06 02:21:47;;;;;;;0.00;0.00;;;;;;;9.36;60.08;99902.66;4929976;29;20078;-77
2021/10/06 02:24:12;;;;;;;0.00;0.00;;;;;;;9.36;59.85;99905.31;4931418;29;20027;-76
2021/10/06 02:26:37;;;;;;;0.00;0.00;;;;;;;9.34;60.11;99902.06;4945076;29;20027;-79
2021/10/06 02:29:03;;;;;;;0.00;0.00;;;;;;;9.35;59.65;99895.69;4919599;29;20035;-78
2021/10/06 02:31:29;;;;;;;0.00;0.00;;;;;;;9.36;60.13;99910.66;4921138;29;20047;-78
2021/10/06 02:33:54;;;;;;;0.00;0.00;;;;;;;9.36;60.26;99901.81;4915746;29;20091;-76
2021/10/06 02:36:20;;;;;;;0.00;0.00;;;;;;;9.36;60.53;99912.50;4916256;29;20098;-78
2021/10/06 02:38:45;;;;;;;0.00;0.00;;;;;;;9.37;60.72;99908.78;4916548;29;20035;-77
2021/10/06 02:41:11;;;;;;;0.00;0.00;;;;;;;9.35;60.64;99906.38;4916596;29;20036;-76
2021/10/06 02:43:36;;;;;;;0.00;0.00;;;;;;;9.32;60.89;99906.84;4943424;29;20562;-78
2021/10/06 02:46:02;;;;;;;0.00;0.00;;;;;;;9.31;60.39;99896.41;4917370;29;20475;-77
2021/10/06 02:48:27;;;;;;;0.00;0.00;;;;;;;9.31;60.57;99907.09;4916539;29;20036;-77
2021/10/06 02:50:52;;;;;;;0.00;0.00;;;;;;;9.27;60.83;99896.91;4916097;29;20495;-76
2021/10/06 02:53:18;;;;;;;0.00;0.00;;;;;;;9.27;60.80;99907.56;4916375;29;20114;-82
2021/10/06 02:55:43;;;;;;;0.00;0.00;;;;;;;9.26;60.61;99897.16;4918002;29;20507;-79
2021/10/06 02:58:09;;;;;;;0.00;0.00;;;;;;;9.25;61.15;99908.88;4918923;29;20503;-80
2021/10/06 03:00:34;;;;;;;0.63;0.63;;;;;;;9.23;60.68;99900.34;4928829;29;20106;-78
2021/10/06 03:03:00;;;;;;;0.00;0.00;;;;;;;9.22;61.20;99912.06;4928681;29;20055;-80
2021/10/06 03:05:25;;;;;;;0.00;0.00;;;;;;;9.17;60.50;99912.78;4934200;29;20475;-79
2021/10/06 03:07:51;;;;;;;0.00;0.00;;;;;;;9.11;60.09;99911.88;4919306;29;20075;-80
2021/10/06 03:10:16;;;;;;;0.00;0.00;;;;;;;9.03;60.43;99903.50;4919486;29;20034;-80
2021/10/06 03:12:42;;;;;;;0.00;0.00;;;;;;;8.98;61.02;99917.56;4938416;29;20031;-77
2021/10/06 03:15:09;;;;;;;0.00;0.00;;;;;;;8.92;60.59;99908.69;4925341;29;20183;-78
2021/10/06 03:17:34;;;;;;;0.00;0.00;;;;;;;8.86;60.99;99911.50;4919725;29;20096;-78
2021/10/06 03:20:00;;;;;;;0.00;0.00;;;;;;;8.79;61.43;99917.81;4919118;29;20420;-77
2021/10/06 03:22:26;;;;;;;0.00;0.00;;;;;;;8.77;61.63;99917.25;4918669;29;20058;-81
2021/10/06 03:24:51;;;;;;;0.00;0.00;;;;;;;8.75;61.60;99914.03;4936807;29;20027;-80
2021/10/06 03:27:17;;;;;;;0.00;0.00;;;;;;;8.70;61.52;99911.25;4921600;29;20032;-81
2021/10/06 03:29:43;;;;;;;0.00;0.00;;;;;;;8.65;61.94;99909.34;4921152;29;20090;-80
2021/10/06 03:32:09;;;;;;;0.00;0.00;;;;;;;8.67;61.84;99906.41;4936221;29;20040;-79
2021/10/06 03:34:35;;;;;;;0.00;0.00;;;;;;;8.64;61.92;99912.22;4920626;29;20499;-86
2021/10/06 03:37:00;;;;;;;0.00;0.00;;;;;;;8.65;61.51;99911.19;4918806;29;20172;-85
2021/10/06 03:39:26;;;;;;;0.00;0.00;;;;;;;8.62;61.71;99915.16;4918665;29;20073;-79
2021/10/06 03:41:51;;;;;;;0.00;0.00;;;;;;;8.60;61.66;99917.22;4919231;29;20416;-80
2021/10/06 03:44:17;;;;;;;0.00;0.00;;;;;;;8.60;61.91;99916.44;4934734;29;20035;-82
2021/10/06 03:46:42;;;;;;;0.00;0.00;;;;;;;8.60;62.02;99916.44;4920116;29;20043;-84
2021/10/06 03:49:08;;;;;;;0.00;0.00;;;;;;;8.57;61.66;99923.06;4919247;29;20528;-81
2021/10/06 03:51:33;;;;;;;0.00;0.00;;;;;;;8.55;61.70;99919.03;4919084;29;20111;-80
2021/10/06 03:53:58;;;;;;;0.00;0.00;;;;;;;8.54;62.40;99920.88;4919851;29;20038;-81
2021/10/06 03:56:24;;;;;;;0.00;0.00;;;;;;;8.51;62.04;99912.53;4918901;29;20032;-81
2021/10/06 03:58:49;;;;;;;0.00;0.00;;;;;;;8.47;61.96;99909.53;4918395;29;20032;-81
2021/10/06 04:01:15;;;;;;;0.00;0.00;;;;;;;8.46;62.11;99918.59;4918152;29;20167;-78
2021/10/06 04:03:40;;;;;;;0.00;0.00;;;;;;;8.44;62.48;99926.78;4922335;29;20031;-79
2021/10/06 04:06:06;;;;;;;0.08;0.08;;;;;;;8.40;62.76;99920.34;4926748;29;20047;-79
2021/10/06 04:08:32;;;;;;;0.00;0.00;;;;;;;8.38;62.75;99918.97;4920056;29;20080;-79
2021/10/06 04:10:58;;;;;;;0.00;0.00;;;;;;;8.36;62.93;99915.72;4902239;29;20027;-84
2021/10/06 04:13:24;;;;;;;0.00;0.00;;;;;;;8.36;62.66;99913.88;4921070;29;20035;-77
2021/10/06 04:15:49;;;;;;;0.00;0.00;;;;;;;8.36;63.22;99915.72;4939423;29;20479;-79
2021/10/06 04:18:49;;;;;;;0.00;0.00;;;;;;;8.36;63.27;99911.22;4918191;29;20039;-88
2021/10/06 04:21:22;;;;;;;0.00;0.00;;;;;;;8.34;63.17;99908.78;4901500;29;20051;-85
2021/10/06 04:23:47;;;;;;;0.40;0.40;;;;;;;8.33;62.96;99904.47;4946524;29;20066;-81
2021/10/06 04:26:53;;;;;;;0.00;0.00;;;;;;;8.33;63.10;99907.16;4917808;29;20047;-83
2021/10/06 04:30:02;;;;;;;0.00;0.00;;;;;;;8.30;63.42;99896.97;4935044;29;20167;-82
2021/10/06 04:37:19;;;;;;;0.00;0.00;;;;;;;8.47;63.21;99883.72;4935804;29;20128;-83
2021/10/06 04:39:53;;;;;;;0.00;0.00;;;;;;;8.58;63.63;99879.34;4933817;29;20469;-84
2021/10/06 04:42:19;;;;;;;0.00;0.00;;;;;;;8.73;63.75;99878.00;4917764;29;20114;-83
2021/10/06 04:44:44;;;;;;;0.00;0.00;;;;;;;8.88;63.52;99878.19;4917507;29;20052;-83
2021/10/06 04:47:09;;;;;;;0.00;0.00;;;;;;;9.04;63.20;99884.56;4917401;29;20471;-84
2021/10/06 04:49:35;;;;;;;0.00;0.00;;;;;;;9.23;63.05;99878.97;4917598;29;20034;-84
2021/10/06 04:52:00;;;;;;;0.00;0.00;;;;;;;9.41;62.47;99881.34;4917630;29;20036;-83
2021/10/06 04:54:26;;;;;;;0.00;0.00;;;;;;;9.59;61.43;99880.25;4917962;29;20027;-84
2021/10/06 04:56:51;;;;;;;0.00;0.00;;;;;;;9.77;60.86;99891.66;4949453;29;20038;-84
2021/10/06 04:59:17;;;;;;;0.00;0.00;;;;;;;9.97;60.22;99890.28;4917831;29;20154;-83
2021/10/06 05:01:42;;;;;;;0.00;0.00;;;;;;;10.16;58.90;99894.22;4917749;29;20051;-84
2021/10/06 05:04:08;;;;;;;0.35;0.30;;;;;;;10.35;57.83;99902.69;4917574;29;20035;-83
2021/10/06 05:06:34;;;;;;;0.00;0.00;;;;;;;10.56;57.61;99902.91;4917631;29;20028;-84
2021/10/06 05:08:59;;;;;;;0.00;0.00;;;;;;;10.73;57.11;99908.91;4917366;29;20181;-84
2021/10/06 05:11:25;;;;;;;0.00;0.00;;;;;;;10.92;56.89;99918.44;4917531;29;20071;-83
2021/10/06 05:13:51;;;;;;;0.20;0.20;;;;;;;11.08;55.61;99920.13;4917382;29;20043;-83
2021/10/06 05:16:17;;;;;;;0.10;0.10;;;;;;;11.24;55.58;99920.25;4901525;29;20064;-82
2021/10/06 05:18:42;;;;;;;0.00;0.00;;;;;;;11.40;54.86;99929.16;4898316;29;20087;-83
2021/10/06 05:21:08;;;;;;;0.00;0.00;;;;;;;11.53;54.53;99939.41;4898294;29;20488;-83
2021/10/06 05:23:33;;;;;;;0.00;0.00;;;;;;;11.65;54.19;99933.84;4898470;29;20036;-84
2021/10/06 05:25:59;;;;;;;0.00;0.00;;;;;;;11.78;53.85;99932.56;4897845;29;20491;-84
2021/10/06 05:28:24;;;;;;;0.00;0.00;;;;;;;11.92;54.61;99928.31;4897375;29;20032;-83
2021/10/06 05:30:50;;;;;;;0.00;0.00;;;;;;;12.07;54.37;99929.47;4898100;29;20092;-82
2021/10/06 05:33:15;;;;;;;0.00;0.00;;;;;;;12.20;54.44;99928.19;4898138;29;20024;-84
2021/10/06 05:35:41;;;;;;;0.10;0.10;;;;;;;12.39;53.83;99923.94;4898285;29;20028;-82
2021/10/06 05:38:07;;;;;;;0.00;0.00;;;;;;;12.54;53.86;99923.13;4897587;29;20028;-82
2021/10/06 05:40:32;;;;;;;0.00;0.00;;;;;;;12.71;53.69;99916.72;4898009;29;20036;-82
2021/10/06 05:42:58;;;;;;;0.00;0.00;;;;;;;12.88;53.49;99917.22;4897857;29;20033;-82
2021/10/06 05:45:24;;;;;;;0.00;0.00;;;;;;;13.02;53.54;99917.47;4898128;29;20056;-82
2021/10/06 05:47:50;;;;;;;0.00;0.00;;;;;;;13.20;53.13;99918.78;4898142;29;20024;-82
2021/10/06 05:50:16;;;;;;;0.10;0.10;;;;;;;13.38;53.12;99922.81;4897995;29;20548;-84
2021/10/06 05:52:41;;;;;;;0.00;0.00;;;;;;;13.53;52.90;99921.16;4897947;29;20609;-82
2021/10/06 05:55:07;;;;;;;0.00;0.00;;;;;;;13.67;52.65;99918.69;4897935;29;20039;-82
2021/10/06 05:57:32;;;;;;;0.00;0.00;;;;;;;13.85;52.21;99912.69;4898017;29;20079;-82
2021/10/06 05:59:58;;;;;;;0.10;0.10;;;;;;;14.01;51.77;99909.94;4897576;29;20039;-84
2021/10/06 06:02:23;;;;;;;0.00;0.00;;;;;;;14.11;52.39;99917.97;4897896;29;20024;-82
2021/10/06 06:04:49;;;;;;;0.00;0.00;;;;;;;14.25;52.17;99912.75;4898090;29;20087;-83
2021/10/06 06:07:14;;;;;;;0.00;0.00;;;;;;;14.38;52.27;99909.44;4929475;29;20040;-81
2021/10/06 06:09:40;;;;;;;0.00;0.00;;;;;;;14.54;52.10;99912.81;4897836;29;20498;-82
2021/10/06 06:12:09;;;;;;;0.10;0.10;;;;;;;14.69;51.63;99911.13;4897742;29;20032;-82
2021/10/06 06:14:35;;;;;;;0.00;0.00;;;;;;;14.81;51.30;99908.84;4929255;29;20127;-82
2021/10/06 06:17:00;;;;;;;0.10;0.10;;;;;;;14.93;51.16;99911.19;4897764;29;20467;-81
2021/10/06 06:19:26;;;;;;;0.00;0.00;;;;;;;15.06;50.84;99904.31;4897933;29;20032;-82
2021/10/06 06:21:51;;;;;;;0.85;0.65;;;;;;;15.18;50.81;99901.22;4897904;29;20035;-82
2021/10/06 06:24:17;;;;;;;0.20;0.20;;;;;;;15.16;50.34;99898.00;4897708;29;20062;-82
2021/10/06 06:26:42;;;;;;;0.10;0.10;;;;;;;15.24;51.47;99896.59;4897922;29;20028;-82
2021/10/06 06:29:08;;;;;;;0.10;0.10;;;;;;;15.32;51.31;99904.84;4897580;29;20488;-82
2021/10/06 06:31:33;;;;;;;0.47;0.47;;;;;;;15.38;50.59;99897.53;4901400;29;20032;-82
2021/10/06 06:33:59;;;;;;;0.00;0.00;;;;;;;15.45;50.33;99902.56;4901628;29;20028;-82
2021/10/06 06:36:24;;;;;;;0.10;0.10;;;;;;;15.56;50.66;99903.25;4901575;29;20122;-82
2021/10/06 06:38:50;;;;;;;0.10;0.10;;;;;;;15.69;50.30;99900.63;4901543;29;20028;-82
2021/10/06 06:41:15;;;;;;;0.08;0.08;;;;;;;15.81;50.42;99902.91;4901355;29;20020;-82
2021/10/06 06:43:41;;;;;;;0.08;0.08;;;;;;;15.87;50.31;99900.19;4901713;29;20127;-82
2021/10/06 06:46:06;;;;;;;0.10;0.10;;;;;;;15.84;50.28;99906.97;4901041;29;20039;-83
2021/10/06 06:48:32;;;;;;;0.10;0.10;;;;;;;15.81;50.84;99915.63;4932994;29;20055;-82
2021/10/06 06:50:59;;;;;;;0.25;0.25;;;;;;;15.76;50.46;99911.09;4901281;29;20095;-82
2021/10/06 06:53:28;;;;;;;0.10;0.10;;;;;;;15.71;50.99;99919.25;4901334;29;20088;-82
2021/10/06 06:55:58;;;;;;;0.10;0.10;;;;;;;15.73;50.91;99913.56;4901269;29;20499;-82
2021/10/06 06:58:25;;;;;;;0.10;0.10;;;;;;;15.73;50.77;99917.03;4901171;29;20043;-82
2021/10/06 07:00:51;;;;;;;0.03;0.03;;;;;;;15.70;50.97;99914.94;4901265;29;20412;-82
2021/10/06 07:03:17;;;;;;;0.28;0.28;;;;;;;15.74;50.78;99910.56;4900861;29;20064;-83
2021/10/06 07:05:43;;;;;;;0.10;0.10;;;;;;;15.75;50.46;99908.69;4900944;29;20036;-82
2021/10/06 07:08:09;;;;;;;0.00;0.00;;;;;;;15.73;50.58;99914.34;4900925;29;20032;-82
2021/10/06 07:10:34;;;;;;;0.08;0.08;;;;;;;15.70;50.44;99912.25;4900869;29;20487;-82
2021/10/06 07:13:00;;;;;;;0.30;0.30;;;;;;;15.73;50.42;99916.25;4900417;29;20036;-82
2021/10/06 07:15:26;;;;;;;0.20;0.20;;;;;;;15.74;50.47;99915.97;4932079;29;20044;-82
2021/10/06 07:17:51;;;;;;;0.10;0.10;;;;;;;15.82;51.20;99909.13;4900929;29;20340;-83
2021/10/06 07:20:16;;;;;;;0.08;0.08;;;;;;;15.87;50.50;99909.09;4900451;29;20039;-84
2021/10/06 07:22:45;;;;;;;0.70;0.70;;;;;;;15.88;50.44;99904.50;4900584;29;20032;-83
2021/10/06 07:25:10;;;;;;;0.00;0.00;;;;;;;15.93;50.49;99907.13;4900473;29;20503;-83
2021/10/06 07:27:36;;;;;;;0.00;0.00;;;;;;;15.94;50.20;99912.25;4900665;29;20068;-84
2021/10/06 07:30:02;;;;;;;0.00;0.00;;;;;;;16.02;50.26;99897.28;4900588;29;20036;-83
2021/10/06 07:32:28;;;;;;;0.10;0.10;;;;;;;16.10;50.41;99901.22;4932069;29;20039;-83
2021/10/06 07:34:53;;;;;;;0.10;0.10;;;;;;;16.12;49.83;99907.91;4900741;29;20032;-83
2021/10/06 07:37:19;;;;;;;0.00;0.00;;;;;;;16.07;49.85;99904.50;4931809;29;20036;-83
2021/10/06 07:39:44;;;;;;;0.20;0.20;;;;;;;16.00;50.09;99908.38;4932065;29;20091;-84
2021/10/06 07:42:10;;;;;;;0.65;0.65;;;;;;;16.01;50.26;99898.38;4900151;29;20032;-84
2021/10/06 07:44:35;;;;;;;0.00;0.00;;;;;;;15.97;50.33;99903.53;4931974;29;20032;-81
2021/10/06 07:47:01;;;;;;;0.47;0.38;;;;;;;15.97;50.53;99900.84;4900213;29;20118;-84
2021/10/06 07:49:26;;;;;;;0.00;0.00;;;;;;;15.99;50.92;99892.47;4900207;29;20032;-83
2021/10/06 07:51:52;;;;;;;0.15;0.15;;;;;;;15.96;50.48;99893.06;4900075;29;20028;-82
2021/10/06 07:54:17;;;;;;;0.10;0.10;;;;;;;15.95;50.70;99889.56;4900083;29;20032;-82
2021/10/06 07:56:42;;;;;;;0.00;0.00;;;;;;;15.96;50.36;99884.97;4900057;29;20040;-82
2021/10/06 07:59:08;;;;;;;0.70;0.70;;;;;;;15.88;50.32;99896.41;4899864;29;20028;-82
2021/10/06 08:01:33;;;;;;;0.10;0.10;;;;;;;15.88;50.49;99889.13;4931569;29;20059;-82
2021/10/06 08:03:59;;;;;;;0.35;0.35;;;;;;;15.96;50.82;99885.75;4899537;29;20416;-82
2021/10/06 08:06:24;;;;;;;0.10;0.10;;;;;;;15.99;50.32;99876.28;4899964;29;20028;-82
2021/10/06 08:08:50;;;;;;;0.10;0.10;;;;;;;15.99;50.73;99873.56;4899942;29;20151;-82
2021/10/06 08:11:15;;;;;;;0.68;0.68;;;;;;;16.00;50.42;99870.59;4899698;29;20111;-82
2021/10/06 08:13:41;;;;;;;0.00;0.00;;;;;;;16.03;50.39;99866.53;4899824;29;20036;-82
2021/10/06 08:16:07;;;;;;;0.20;0.20;;;;;;;15.98;50.18;99866.59;4899269;29;20438;-82
2021/10/06 08:18:32;;;;;;;0.05;0.05;;;;;;;15.93;50.32;99864.78;4899734;29;20419;-82
2021/10/06 08:20:58;;;;;;;0.20;0.20;;;;;;;15.95;50.16;99869.88;4899577;29;20032;-82
2021/10/06 08:23:26;;;;;;;0.10;0.10;;;;;;;15.95;50.66;99864.47;4899806;29;20128;-82
2021/10/06 08:25:52;;;;;;;0.20;0.20;;;;;;;15.91;50.15;99861.56;4899678;29;20127;-83
2021/10/06 08:28:19;;;;;;;0.08;0.08;;;;;;;15.87;50.24;99859.72;4899350;29;20777;-82
2021/10/06 08:30:45;;;;;;;0.05;0.05;;;;;;;15.93;50.88;99847.78;4899601;29;20028;-83
2021/10/06 08:33:11;;;;;;;0.10;0.10;;;;;;;16.03;50.79;99854.91;4899179;29;20059;-82
2021/10/06 08:35:37;;;;;;;0.10;0.10;;;;;;;16.12;50.29;99845.06;4930948;29;20075;-82
2021/10/06 08:38:04;;;;;;;0.70;0.40;;;;;;;16.17;49.75;99855.78;4899115;29;20034;-82
2021/10/06 08:40:33;;;;;;;0.00;0.00;;;;;;;16.20;49.80;99851.69;4899281;29;20495;-82
2021/10/06 08:43:00;;;;;;;0.10;0.10;;;;;;;16.26;49.50;99851.34;4899221;29;20063;-81
2021/10/06 08:45:26;;;;;;;0.10;0.10;;;;;;;16.27;49.62;99854.81;4899349;29;20032;-82
2021/10/06 08:47:51;;;;;;;0.75;0.75;;;;;;;16.33;48.99;99846.38;4930658;29;20028;-82
2021/10/06 08:50:18;;;;;;;0.10;0.10;;;;;;;16.40;47.65;99861.38;4898833;29;20028;-83
2021/10/06 08:52:48;;;;;;;0.03;0.03;;;;;;;16.40;47.81;99858.69;4898555;29;20123;-82
2021/10/06 08:55:14;;;;;;;0.20;0.20;;;;;;;16.37;48.18;99853.84;4898708;29;20030;-82
2021/10/06 08:57:40;;;;;;;0.20;0.20;;;;;;;16.40;47.96;99859.47;4898979;29;20024;-82
2021/10/06 09:00:07;;;;;;;0.10;0.10;;;;;;;16.49;47.85;99848.81;4898548;29;20091;-82
2021/10/06 09:02:41;;;;;;;0.15;0.10;;;;;;;16.61;48.23;99854.56;4898873;29;20095;-82
2021/10/06 09:05:09;;;;;;;0.00;0.00;;;;;;;16.75;47.66;99849.16;4898603;29;20506;-81
2021/10/06 09:08:00;;;;;;;0.10;0.10;;;;;;;16.94;47.32;99851.00;4898476;29;20119;-82
2021/10/06 09:10:28;;;;;;;0.25;0.20;;;;;;;17.07;47.13;99839.41;4898210;29;20029;-81
2021/10/06 09:12:55;;;;;;;0.10;0.10;;;;;;;17.19;46.40;99843.53;4898655;29;20039;-82
2021/10/06 09:15:20;;;;;;;0.10;0.10;;;;;;;17.26;45.88;99835.84;4898125;29;20146;-82
2021/10/06 09:17:54;;;;;;;0.10;0.10;;;;;;;17.28;45.69;99831.72;4898638;29;20034;-82
2021/10/06 09:20:19;;;;;;;0.00;0.00;;;;;;;17.27;45.89;99837.41;4898363;29;20118;-84
2021/10/06 09:22:59;;;;;;;0.10;0.10;;;;;;;17.33;45.45;99838.13;4898474;29;20044;-82
2021/10/06 09:25:27;;;;;;;0.20;0.20;;;;;;;17.34;45.44;99837.03;4898550;29;20039;-82
2021/10/06 09:27:52;;;;;;;0.38;0.30;;;;;;;17.37;45.43;99836.41;4898181;29;20024;-82
2021/10/06 09:30:18;;;;;;;0.20;0.20;;;;;;;17.33;44.43;99840.81;4898134;29;20091;-82
2021/10/06 09:32:45;;;;;;;0.10;0.10;;;;;;;17.35;44.56;99825.09;4898505;29;20469;-82
2021/10/06 09:35:23;;;;;;;0.10;0.10;;;;;;;17.32;44.53;99831.94;4898149;29;20051;-82
2021/10/06 09:37:54;;;;;;;0.10;0.10;;;;;;;17.33;44.24;99827.31;4898446;29;20038;-83
2021/10/06 09:40:23;;;;;;;0.63;0.63;;;;;;;17.38;44.18;99825.31;4898018;29;20475;-84
2021/10/06 09:42:57;;;;;;;0.50;0.50;;;;;;;17.43;44.76;99830.59;4898283;29;20043;-82
2021/10/06 09:45:37;;;;;;;0.00;0.00;;;;;;;17.51;44.85;99822.88;4898027;29;20032;-82
2021/10/06 09:48:04;;;;;;;0.00;0.00;;;;;;;17.53;43.40;99826.09;4897822;29;20496;-81
2021/10/06 09:50:31;;;;;;;0.00;0.00;;;;;;;17.53;43.64;99828.81;4898211;29;20482;-82
2021/10/06 09:53:06;;;;;;;0.10;0.10;;;;;;;17.52;43.90;99817.16;4915358;29;20040;-82
2021/10/06 09:55:34;;;;;;;0.00;0.00;;;;;;;17.52;44.38;99819.09;4898215;29;20034;-82
2021/10/06 09:58:00;;;;;;;0.10;0.10;;;;;;;17.59;44.45;99828.38;4898181;29;20100;-82
2021/10/06 10:00:26;;;;;;;0.10;0.10;;;;;;;17.70;44.10;99818.13;4897971;29;20060;-83
2021/10/06 10:02:52;;;;;;;0.10;0.10;;;;;;;17.82;43.84;99817.59;4898065;29;20071;-83
2021/10/06 10:05:17;;;;;;;0.17;0.17;;;;;;;17.97;43.87;99821.88;4896825;29;20028;-83
2021/10/06 10:07:43;;;;;;;0.00;0.00;;;;;;;18.12;43.14;99826.13;4898023;29;20488;-84
2021/10/06 10:10:11;;;;;;;5.95;0.45;;;;;;;18.07;42.05;99823.56;4897877;29;20036;-84
2021/10/06 10:12:37;;;;;;;;;;;;;;;18.06;42.11;99822.75;4898191;29;20107;-82
2021/10/06 10:15:04;;;;;;;0.85;0.60;;;;;;;17.93;42.29;99829.78;4857240;29;1175989;-84
2021/10/06 10:17:29;;;;;;;0.00;0.00;;;;;;;17.92;42.90;99805.75;4897857;29;20095;-83
2021/10/06 10:19:57;;;;;;;0.30;0.30;;;;;;;17.95;42.67;99797.03;4897696;29;20486;-83
2021/10/06 10:22:25;;;;;;;0.10;0.10;;;;;;;18.02;42.59;99805.53;4897693;29;20506;-83
2021/10/06 10:24:52;;;;;;;0.00;0.00;;;;;;;18.03;42.06;99800.94;4897978;29;20149;-83
2021/10/06 10:27:22;;;;;;;0.10;0.10;;;;;;;18.04;42.43;99803.31;4897828;29;20044;-83
2021/10/06 10:30:04;;;;;;;0.00;0.00;;;;;;;18.10;42.41;99797.78;4897620;29;20654;-83
2021/10/06 10:32:42;;;;;;;0.08;0.08;;;;;;;18.23;42.28;99796.91;4898049;29;20047;-83
2021/10/06 10:35:15;;;;;;;0.00;0.00;;;;;;;18.38;41.66;99779.47;4897634;29;20400;-83
2021/10/06 10:40:36;;;;;;;0.00;0.00;;;;;;;18.49;41.05;99780.00;4914572;29;20415;-83
2021/10/06 10:43:10;;;;;;;0.00;0.00;;;;;;;18.53;40.59;99784.50;4897636;29;20039;-83
2021/10/06 10:45:47;;;;;;;0.17;0.17;;;;;;;18.47;40.14;99771.38;4899053;29;20036;-83
2021/10/06 10:48:15;;;;;;;0.00;0.00;;;;;;;18.35;40.63;99774.69;4897963;29;20484;-83
2021/10/06 10:50:44;;;;;;;0.10;0.10;;;;;;;18.29;40.45;99779.44;4897844;29;20123;-83
2021/10/06 10:53:13;;;;;;;;;;;;;;;18.24;40.94;99793.88;4898078;29;20043;-83
2021/10/06 10:55:46;;;;;;;0.10;0.10;;;;;;;18.16;40.75;99783.00;4897810;29;19977;-83
2021/10/06 10:58:32;;;;;;;0.00;0.00;;;;;;;18.04;41.01;99778.97;4897299;29;20024;-84
2021/10/06 11:01:04;;;;;;;0.00;0.00;;;;;;;17.99;41.38;99770.97;4897572;29;20028;-83
2021/10/06 11:03:30;;;;;;;0.57;0.57;;;;;;;18.00;41.53;99772.53;4897654;29;20028;-84
2021/10/06 11:05:57;;;;;;;0.10;0.10;;;;;;;17.93;41.48;99778.38;4897415;29;20067;-83
2021/10/06 11:08:28;;;;;;;0.08;0.08;;;;;;;17.88;41.54;99767.69;4897238;29;20132;-84
2021/10/06 11:11:09;;;;;;;0.00;0.00;;;;;;;17.84;41.90;99763.19;4897459;29;20404;-83
2021/10/06 11:13:37;;;;;;;0.00;0.00;;;;;;;17.83;41.36;99759.66;4897529;29;20135;-84
2021/10/06 11:16:02;;;;;;;0.00;0.00;;;;;;;17.82;41.36;99747.25;4897786;29;20519;-84
2021/10/06 11:18:37;;;;;;;0.10;0.10;;;;;;;17.84;40.96;99750.44;4900661;29;20036;-84
2021/10/06 11:21:05;;;;;;;0.00;0.00;;;;;;;17.95;41.08;99736.72;4900878;29;20032;-84
2021/10/06 11:23:30;;;;;;;0.28;0.28;;;;;;;18.09;41.13;99740.16;4900387;29;20024;-84
2021/10/06 11:25:57;;;;;;;0.00;0.00;;;;;;;18.19;40.97;99730.97;4900745;29;20040;-84
2021/10/06 11:28:23;;;;;;;0.00;0.00;;;;;;;18.35;39.98;99725.94;4900150;29;20038;-83
2021/10/06 11:30:56;;;;;;;0.13;0.13;;;;;;;18.44;39.75;99715.16;4900688;29;20035;-83
2021/10/06 11:33:26;;;;;;;0.00;0.00;;;;;;;18.54;39.40;99723.81;4900515;29;20710;-83
2021/10/06 11:36:03;;;;;;;0.10;0.10;;;;;;;18.60;39.04;99716.31;4900894;29;20124;-83
2021/10/06 11:38:29;;;;;;;0.00;0.00;;;;;;;18.67;39.26;99705.84;4900407;29;20395;-82
2021/10/06 11:40:54;;;;;;;0.00;0.00;;;;;;;18.80;39.29;99709.53;4900580;29;20032;-82
2021/10/06 11:43:20;;;;;;;0.03;0.03;;;;;;;18.86;38.46;99704.78;4900154;29;20467;-83